• Join FlightAware (Why Join?)
  • Login
  • US Flag 
Trick or treat! (Boo!!) 
12:28AM EDT


 

Airport Tracker/Info


-or-


 

Live Flight TrackerFlight Track Log ✈ SWA1960 ✈ 22-Apr-2013 ✈ KBWI - KCHS

Flight Track Log - Related Links

Times and Time Zones

All times are in EDT time to prevent confusion due to time zone crossing. See the SWA1960 flight status page for this flight to view local times or setup timezone preferences in your user account.

Time Position Orientation Groundspeed Altitude Reporting Facility
EDT Latitude Longitude Course Direction KTS MPH feet Rate Location/Type
02:25PM 39.1500 -76.6500 153° Southeast 159 183 1,500  Level Potomac TRACON
02:26PM 39.1000 -76.6167 153° Southeast 219 252 4,000 2,400 Climbing Potomac TRACON
02:27PM 39.0333 -76.5500 142° Southeast 263 303 6,600 2,760 Climbing Potomac TRACON
02:28PM 38.9833 -76.5000 142° Southeast 270 311 9,300 2,700 Climbing Potomac TRACON
02:29PM 38.9000 -76.4833 171° South 308 354 11,800 2,280 Climbing Potomac TRACON
02:30PM 38.8333 -76.5333 210° Southwest 340 391 13,900 1,380 Climbing Potomac TRACON
02:31PM 38.7333 -76.6000 207° Southwest 353 406 14,600 1,920 Climbing Potomac TRACON
02:32PM 38.6500 -76.6667 212° Southwest 369 425 17,800 2,400 Climbing Potomac TRACON
02:32PM 38.6250 -76.6811 204° Southwest 376 433 18,000 840 Climbing Washington Center
02:33PM 38.5264 -76.7275 200° South 393 452 19,000 900 Climbing Washington Center
02:34PM 38.4183 -76.7128 174° South 382 440 19,800 2,040 Climbing Washington Center
02:35PM 38.2994 -76.6922 172° South 388 447 23,100 3,000 Climbing Washington Center
02:36PM 38.1892 -76.6750 173° South 394 453 25,800 1,620 Climbing Washington Center
02:37PM 38.0808 -76.6628 175° South 394 453 26,400 1,200 Climbing Washington Center
02:38PM 37.9725 -76.6481 174° South 389 448 28,200 2,040 Climbing Washington Center
02:39PM 37.8661 -76.6569 184° South 389 448 30,500 2,220 Climbing Washington Center
02:40PM 37.7597 -76.6714 186° South 384 442 32,700 2,160 Climbing Washington Center
02:41PM 37.6614 -76.6806 184° South 384 442 34,900 2,040 Climbing Washington Center
02:42PM 37.5653 -76.6947 187° South 369 425 36,800 1,440 Climbing Washington Center
02:43PM 37.4694 -76.7064 186° South 357 411 37,800 600 Climbing Washington Center
02:44PM 37.3731 -76.7364 194° South 352 405 38,000 60 Climbing Washington Center
02:45PM 37.2808 -76.7769 199° South 352 405 38,000  Level Washington Center
02:46PM 37.1889 -76.8172 199° South 358 412 38,000  Level Washington Center
02:47PM 37.0944 -76.8547 198° South 358 412 38,000  Level Washington Center
02:48PM 37.0022 -76.8947 199° South 358 412 38,000  Level Washington Center
02:49PM 36.9100 -76.9322 198° South 353 406 38,000  Level Washington Center
02:50PM 36.8200 -76.9669 197° South 348 400 38,000  Level Washington Center
02:51PM 36.7297 -77.0069 200° South 348 400 38,000  Level Washington Center
02:52PM 36.6497 -77.0675 211° Southwest 343 395 38,000  Level Washington Center
02:53PM 36.5781 -77.1336 217° Southwest 338 389 38,000  Level Washington Center
02:54PM 36.5042 -77.1992 216° Southwest 338 389 38,000  Level Washington Center
02:55PM 36.4322 -77.2622 215° Southwest 332 382 38,000  Level Washington Center
02:56PM 36.3564 -77.3250 214° Southwest 332 382 38,000  Level Washington Center
02:57PM 36.2844 -77.3906 216° Southwest 332 382 38,000 -240 Level Washington Center
02:58PM 36.2125 -77.4583 217° Southwest 332 382 37,600 -600 Descending Washington Center
02:59PM 36.1511 -77.5108 215° Southwest 321 369 36,800 -840 Descending Washington Center
03:00PM 36.0750 -77.5786 216° Southwest 326 375 36,000 -420 Descending Washington Center
03:01PM 35.9944 -77.6458 214° Southwest 336 387 36,000  Level Washington Center
03:02PM 35.9181 -77.7156 216° Southwest 347 399 36,000  Level Washington Center
03:03PM 35.8397 -77.7803 214° Southwest 347 399 36,000  Level Washington Center
03:04PM 35.7592 -77.8497 215° Southwest 353 406 36,000  Level Washington Center
03:05PM 35.6786 -77.9214 216° Southwest 353 406 36,000  Level Washington Center
03:06PM 35.5981 -77.9881 214° Southwest 358 412 36,000 -180 Level Washington Center
03:07PM 35.5194 -78.0547 215° Southwest 363 418 35,700 -720 Descending Washington Center
03:08PM 35.4367 -78.1261 215° Southwest 363 418 34,600 -1,020 Descending Washington Center
03:09PM 35.3517 -78.1894 211° Southwest 363 418 33,700 -1,020 Descending Washington Center
03:10PM 35.2667 -78.2581 213° Southwest 369 425 32,600 -1,080 Descending Washington Center
03:11PM 35.1817 -78.3239 212° Southwest 369 425 31,600 -1,020 Descending Washington Center
03:12PM 35.0967 -78.3894 212° Southwest 369 425 30,600 -1,020 Descending Washington Center
03:13PM 35.0139 -78.4550 213° Southwest 369 425 29,600 -1,080 Descending Washington Center
03:14PM 34.9289 -78.5206 212° Southwest 369 425 28,500 -840 Descending Washington Center
03:15PM 34.8481 -78.5808 211° Southwest 357 411 28,000 -240 Descending Washington Center
03:17PM 34.7153 -78.6797 211° Southwest 349 402 28,000  Level Jacksonville Center
03:18PM 34.6339 -78.7419 212° Southwest 349 402 28,000  Level Jacksonville Center
03:19PM 34.5525 -78.8036 212° Southwest 354 407 28,000  Level Jacksonville Center
03:20PM 34.4711 -78.8706 214° Southwest 354 407 28,000  Level Jacksonville Center
03:21PM 34.3917 -78.9322 213° Southwest 359 413 28,000 -540 Level Jacksonville Center
03:22PM 34.3081 -78.9936 211° Southwest 359 413 27,000 -960 Descending Jacksonville Center
03:23PM 34.2242 -79.0428 206° Southwest 349 402 26,100 -1,020 Descending Jacksonville Center
03:24PM 34.1336 -79.0842 201° Southwest 349 402 25,000 -1,080 Descending Jacksonville Center
03:25PM 34.0453 -79.1258 201° Southwest 349 402 24,000 -1,020 Descending Jacksonville Center
03:26PM 33.9564 -79.1622 199° South 349 402 23,000 -1,320 Descending Jacksonville Center
03:27PM 33.8722 -79.2033 202° Southwest 344 396 21,400 -1,500 Descending Jacksonville Center
03:28PM 33.7856 -79.2394 199° South 338 389 20,000 -1,800 Descending Jacksonville Center
03:29PM 33.7039 -79.3028 213° Southwest 333 383 17,900 -1,620 Descending Jacksonville Center
03:30PM 33.6283 -79.3581 211° Southwest 321 369 16,800 -1,080 Descending Jacksonville Center
03:31PM 33.5589 -79.4108 212° Southwest 316 364 15,800 -1,380 Descending Jacksonville Center
03:32PM 33.4833 -79.4686 213° Southwest 316 364 14,100 -1,800 Descending Jacksonville Center
03:33PM 33.4075 -79.5211 210° Southwest 316 364 12,200 -1,500 Descending Jacksonville Center
03:34PM 33.3269 -79.5589 201° Southwest 311 358 11,200 -840 Descending Jacksonville Center
03:35PM 33.2486 -79.5942 201° Southwest 311 358 10,600 -1,020 Descending Jacksonville Center
03:36PM 33.1744 -79.6292 202° Southwest 306 352 9,200 -1,500 Descending Jacksonville Center
03:37PM 33.1000 -79.6617 200° South 295 339 7,700 -1,440 Descending Jacksonville Center
03:38PM 33.0300 -79.6989 204° Southwest 289 333 6,400 -1,320 Descending Jacksonville Center
03:39PM 32.9753 -79.7603 223° Southwest 281 323 5,100 -1,320 Descending Jacksonville Center
03:40PM 32.9269 -79.8314 231° Southwest 274 315 3,800 -1,200 Descending Jacksonville Center
03:41PM 32.8867 -79.8919 232° Southwest 274 315 2,800 -1,020 Descending Jacksonville Center
03:43PM 32.8986 -80.0405 344° North  Level Estimated
03:50PM 32.8986 -80.0405 348° North  Level Estimated
03:51PM 32.8986 -80.0405 348° North  Level Estimated
03:52PM 32.8986 -80.0405 348° North  Level Estimated
03:53PM 32.8986 -80.0405 348° North  Level Estimated
03:54PM 32.8986 -80.0405 348° North  Level Estimated
03:55PM 32.8986 -80.0405 348° North  Level Estimated
03:56PM 32.8986 -80.0405 348° North  Level Estimated